• Join FlightAware (Why Join?)
  • Login
  • US Flag 
04:45PM EST


 

Airport Tracker/Info


-or-


 

Live Flight TrackerFlight Track Log ✈ SWA1564 ✈ 03-Jul-2014 ✈ KSAN - KPHX

Flight Track Log - Related Links

Times and Time Zones

All times are in EDT time to prevent confusion due to time zone crossing. See the SWA1564 flight status page for this flight to view local times or setup timezone preferences in your user account.

Time Position Orientation Groundspeed Altitude Reporting Facility
EDT Latitude Longitude Course Direction KTS MPH feet Rate Location/Type
01:35PM 32.7408 -117.2222 84° East 168 193 1,500  Level Los Angeles Center
01:36PM 32.7561 -117.2931 284° West 227 261 3,500 2,580 Climbing Los Angeles Center
01:38PM 32.6547 -117.2650 112° Southeast 251 289 9,600 2,820 Climbing Los Angeles Center
01:40PM 32.6178 -117.0342 100° East 333 383 15,300 2,880 Climbing Los Angeles Center
01:41PM 32.6161 -116.7891 84° East  Level FlightAware Approximate
01:41PM 32.6158 -116.9172 91° East 352 405 18,700  Level Los Angeles Center
01:42PM 32.6289 -116.7908 83° East 380 437 21,400 2,640 Climbing Los Angeles Center
01:44PM 32.6569 -116.5072 90° East 394 453 27,000 1,080 Climbing Los Angeles Center
01:48PM 32.6928 -116.1222 85° East 397 457 27,000  Level Los Angeles Center
01:49PM 32.7078 -115.9669 83° East 397 457 27,000  Level Los Angeles Center
01:51PM 32.7308 -115.7100 84° East 395 455 27,000  Level Los Angeles Center
01:53PM 32.7276 -115.5826 85° East  Level FlightAware Approximate
01:53PM 32.7511 -115.4514 85° East 396 456 27,000  Level Los Angeles Center
01:54PM 32.7547 -115.2936 88° East 398 458 26,900 -540 Descending Los Angeles Center
01:55PM 32.7569 -115.1633 89° East 398 458 25,900 -960 Descending Los Angeles Center
01:56PM 32.7592 -115.0358 89° East 393 452 25,000 -480 Descending Los Angeles Center
01:57PM 32.7614 -114.9089 89° East 389 448 25,000  Level Los Angeles Center
01:58PM 32.7636 -114.7817 89° East 388 447 25,000  Level Los Angeles Center
01:59PM 32.7664 -114.6542 88° East 388 447 25,000  Level Los Angeles Center
02:01PM 32.7711 -114.3783 89° East 380 437 25,000  Level Los Angeles Center
02:02PM 32.7717 -114.2542 90° East 379 436 25,000  Level Los Angeles Center
02:04PM 32.7736 -114.0067 89° East 378 435 25,000  Level Los Angeles Center
02:05PM 32.7867 -113.8822 83° East 379 436 25,000 -360 Level Los Angeles Center
02:07PM 32.8758 -113.6097 69° East 383 441 23,900 -780 Descending Albuquerque Center
02:10PM 33.0236 -113.3214 52° Northeast 365 420 21,100 -1,020 Descending Los Angeles Center
02:11PM 33.0861 -113.1983 59° Northeast 361 415 19,900 -1,020 Descending Albuquerque Center
02:13PM 33.1381 -113.0983 58° Northeast 358 412 18,900 -1,080 Descending Albuquerque Center
02:15PM 33.2467 -112.8836 59° Northeast 341 392 16,700 -720 Descending Albuquerque Center
02:17PM 33.2814 -112.6864 78° East 310 357 16,000 -660 Descending Albuquerque Center
02:18PM 33.2844 -112.5931 88° East 307 353 14,700 -1,560 Descending Albuquerque Center
02:19PM 33.2889 -112.4797 87° East 293 337 12,800 -1,680 Descending Albuquerque Center
02:20PM 33.2914 -112.3858 88° East 287 330 11,300 -960 Descending Albuquerque Center
02:21PM 33.2964 -112.2914 86° East 287 330 10,900 -780 Descending Albuquerque Center
02:22PM 33.3033 -112.1964 85° East 287 330 9,700 -1,020 Descending Albuquerque Center
02:24PM 33.3308 -112.0153 80° East 243 280 7,800 -900 Descending Albuquerque Center
02:25PM 33.3478 -111.9386 75° East 242 278 7,000 -1,020 Descending Albuquerque Center
02:27PM 33.3925 -111.8281 64° Northeast 239 275 4,700 -1,080 Descending Albuquerque Center
02:28PM 33.4225 -111.8775 306° West 192 221 3,800 -1,200 Descending Albuquerque Center
02:29PM 33.4314 -111.9294 282° West 164 189 2,300 -1,320 Descending Albuquerque Center
02:30PM 33.4333 -111.9833 272° West 146 168 1,400 -1,080 Descending Phoenix TRACON